Time;durP1;ratioP1;P1;durP2;ratioP2;P2;SDS_P1;SDS_P2;PMS_P1;PMS_P2;Temp;Humidity;BMP_temperature;BMP_pressure;BME280_temperature;BME280_humidity;BME280_pressure;Samples;Min_cycle;Max_cycle;Signal;HPM_P1;HPM_P2
2022/12/11 00:00:39;;;;;;;23.02;13.48;;;3.40;76.60;;;;;;5057184;28;20816;-72
2022/12/11 00:03:07;;;;;;;21.83;13.00;;;3.40;76.60;;;;;;5055443;28;20200;-69
2022/12/11 00:05:45;;;;;;;18.77;12.00;;;3.50;76.50;;;;;;5052364;28;20231;-71
2022/12/11 00:08:13;;;;;;;18.48;11.82;;;3.50;76.40;;;;;;5053155;28;20208;-72
2022/12/11 00:10:48;;;;;;;18.60;11.57;;;3.40;76.40;;;;;;5056787;28;20258;-71
2022/12/11 00:13:16;;;;;;;15.77;10.30;;;3.40;76.40;;;;;;5057902;28;20214;-70
2022/12/11 00:15:44;;;;;;;21.00;12.73;;;3.40;76.40;;;;;;5054870;28;20228;-71
2022/12/11 00:18:13;;;;;;;18.23;11.85;;;3.40;76.40;;;;;;5050772;28;20204;-71
2022/12/11 00:20:42;;;;;;;19.20;11.60;;;3.40;76.30;;;;;;5055524;28;20212;-71
2022/12/11 00:23:11;;;;;;;19.17;11.73;;;3.40;76.40;;;;;;5050467;28;20209;-71
2022/12/11 00:25:42;;;;;;;23.65;11.80;;;3.40;76.40;;;;;;5049655;28;20285;-71
2022/12/11 00:28:10;;;;;;;16.95;10.32;;;3.40;76.40;;;;;;5053879;28;20681;-70
2022/12/11 00:30:40;;;;;;;18.27;10.75;;;3.40;76.30;;;;;;5055279;28;20204;-71
2022/12/11 00:33:11;;;;;;;16.88;9.80;;;3.40;76.30;;;;;;5058813;28;20213;-71
2022/12/11 00:35:39;;;;;;;17.75;9.77;;;3.40;76.30;;;;;;5053684;28;20208;-71
2022/12/11 00:38:13;;;;;;;19.92;10.95;;;3.40;76.30;;;;;;5057046;28;20258;-71
2022/12/11 00:40:42;;;;;;;18.15;10.48;;;3.40;76.30;;;;;;5054957;28;20664;-71
2022/12/11 00:43:10;;;;;;;18.33;11.45;;;3.40;76.20;;;;;;5050838;28;20228;-70
2022/12/11 00:45:38;;;;;;;19.08;11.38;;;3.40;76.30;;;;;;5051735;28;20203;-70
2022/12/11 00:48:07;;;;;;;21.77;11.57;;;3.40;76.20;;;;;;5052016;28;20747;-71
2022/12/11 00:50:36;;;;;;;18.58;10.32;;;3.40;76.20;;;;;;5052191;28;20208;-71
2022/12/11 00:53:05;;;;;;;16.90;10.35;;;3.40;76.20;;;;;;5050563;28;20200;-71
2022/12/11 00:55:39;;;;;;;17.88;11.70;;;3.40;76.10;;;;;;5056285;28;20251;-71
2022/12/11 00:58:08;;;;;;;22.17;12.05;;;3.40;76.20;;;;;;5059027;28;20204;-71
2022/12/11 01:00:36;;;;;;;20.67;12.32;;;3.40;76.20;;;;;;5062767;28;20736;-71
2022/12/11 01:03:04;;;;;;;18.55;12.18;;;3.40;76.20;;;;;;5057035;28;20208;-70
2022/12/11 01:05:33;;;;;;;19.48;11.75;;;3.40;76.10;;;;;;5056953;28;20282;-69
2022/12/11 01:08:02;;;;;;;22.13;12.90;;;3.40;76.10;;;;;;5056980;28;20400;-71
2022/12/11 01:10:30;;;;;;;18.60;11.27;;;3.30;76.10;;;;;;5060102;28;20236;-70
2022/12/11 01:13:01;;;;;;;20.25;12.65;;;3.30;76.10;;;;;;5054145;28;20204;-71
2022/12/11 01:15:32;;;;;;;17.77;11.63;;;3.30;76.10;;;;;;5059325;28;20221;-71
2022/12/11 01:18:05;;;;;;;19.63;12.43;;;3.30;76.10;;;;;;5059848;28;20196;-70
2022/12/11 01:20:33;;;;;;;20.38;11.65;;;3.30;76.10;;;;;;5053143;28;20208;-70
2022/12/11 01:23:01;;;;;;;25.20;12.90;;;3.30;76.10;;;;;;5061303;28;20212;-71
2022/12/11 01:25:31;;;;;;;23.10;12.85;;;3.30;76.00;;;;;;5058442;28;20196;-70
2022/12/11 01:28:00;;;;;;;24.25;13.48;;;3.30;76.10;;;;;;5060032;28;20946;-70
2022/12/11 01:30:28;;;;;;;23.23;14.40;;;3.30;76.20;;;;;;5059625;28;20208;-70
2022/12/11 01:32:56;;;;;;;20.75;13.38;;;3.30;76.40;;;;;;5054554;28;20958;-70
2022/12/11 01:35:24;;;;;;;20.67;12.82;;;3.30;76.30;;;;;;5056027;28;20204;-71
2022/12/11 01:37:52;;;;;;;22.17;12.90;;;3.30;76.20;;;;;;5058277;28;20285;-71
2022/12/11 01:40:20;;;;;;;25.58;13.68;;;3.40;76.20;;;;;;5060691;28;20258;-71
2022/12/11 01:42:49;;;;;;;22.95;13.93;;;3.40;76.20;;;;;;5055685;28;20622;-71
2022/12/11 01:45:29;;;;;;;19.23;11.88;;;3.40;76.20;;;;;;5054627;28;20196;-70
2022/12/11 01:48:02;;;;;;;24.85;14.00;;;3.40;76.20;;;;;;5056832;28;20811;-71
2022/12/11 01:50:33;;;;;;;24.83;14.85;;;3.40;76.20;;;;;;5058263;28;20257;-71
2022/12/11 01:53:03;;;;;;;23.50;13.80;;;3.40;76.10;;;;;;5057000;28;20272;-71
2022/12/11 01:55:32;;;;;;;27.67;15.40;;;3.40;76.10;;;;;;5057267;28;20213;-71
2022/12/11 01:58:02;;;;;;;24.30;14.05;;;3.40;76.00;;;;;;5054501;28;20242;-71
2022/12/11 02:00:31;;;;;;;25.05;16.10;;;3.30;76.00;;;;;;5057439;28;20200;-70
2022/12/11 02:02:59;;;;;;;28.73;16.20;;;3.30;76.00;;;;;;5057263;28;20207;-71
2022/12/11 02:05:27;;;;;;;28.35;15.95;;;3.30;76.00;;;;;;5071492;28;20823;-70
2022/12/11 02:07:58;;;;;;;29.35;16.65;;;3.30;76.00;;;;;;5057258;28;20273;-71
2022/12/11 02:10:37;;;;;;;28.38;16.42;;;3.30;76.00;;;;;;5056978;28;20203;-70
2022/12/11 02:13:11;;;;;;;29.73;16.27;;;3.30;76.00;;;;;;5050600;28;20204;-71
2022/12/11 02:15:48;;;;;;;27.90;16.92;;;3.30;76.00;;;;;;5053023;28;20204;-71
2022/12/11 02:18:25;;;;;;;26.25;15.15;;;3.20;76.00;;;;;;5056989;28;20201;-70
2022/12/11 02:21:02;;;;;;;26.27;16.05;;;3.20;75.90;;;;;;5056641;28;20222;-70
2022/12/11 02:23:44;;;;;;;26.75;16.40;;;3.20;75.90;;;;;;5056716;28;20192;-70
2022/12/11 02:26:24;;;;;;;27.10;15.38;;;3.20;75.80;;;;;;5055483;28;20293;-71
2022/12/11 02:28:57;;;;;;;26.77;15.80;;;3.10;75.80;;;;;;5074595;28;20203;-70
2022/12/11 02:31:29;;;;;;;27.40;16.23;;;3.10;75.60;;;;;;5056162;28;20200;-71
2022/12/11 02:34:03;;;;;;;28.77;16.48;;;3.00;75.70;;;;;;5062167;28;20710;-70
2022/12/11 02:36:35;;;;;;;28.30;14.77;;;3.00;75.80;;;;;;5073651;28;20224;-71
2022/12/11 02:39:05;;;;;;;25.60;15.70;;;2.90;75.70;;;;;;5057100;28;20204;-71
2022/12/11 02:41:34;;;;;;;25.55;14.98;;;2.90;75.80;;;;;;5056576;28;20201;-72
2022/12/11 02:44:05;;;;;;;25.02;16.10;;;2.90;75.80;;;;;;5054359;28;20684;-71
2022/12/11 02:46:35;;;;;;;24.05;13.57;;;2.90;75.80;;;;;;5057912;28;20220;-71
2022/12/11 02:49:06;;;;;;;25.70;14.80;;;2.80;75.80;;;;;;5053106;28;20201;-71
2022/12/11 02:51:39;;;;;;;23.92;14.35;;;2.80;75.80;;;;;;5053701;28;20745;-71
2022/12/11 02:54:12;;;;;;;25.38;14.65;;;2.80;75.70;;;;;;5059056;28;20254;-71
2022/12/11 02:56:44;;;;;;;24.27;13.73;;;2.70;75.60;;;;;;5057143;28;20255;-71
2022/12/11 02:59:18;;;;;;;27.52;14.82;;;2.70;75.60;;;;;;5058050;28;20674;-71
2022/12/11 03:01:47;;;;;;;24.92;13.68;;;2.70;75.70;;;;;;5057171;28;20264;-71
2022/12/11 03:04:15;;;;;;;22.60;14.45;;;2.70;75.60;;;;;;5051602;28;20204;-71
2022/12/11 03:06:48;;;;;;;30.25;15.43;;;2.60;75.70;;;;;;5049453;28;20603;-71
2022/12/11 03:09:16;;;;;;;24.98;13.07;;;2.60;75.70;;;;;;5052337;28;20192;-69
2022/12/11 03:11:45;;;;;;;23.30;12.70;;;2.60;75.70;;;;;;5059688;28;20214;-71
2022/12/11 03:14:14;;;;;;;25.30;13.40;;;2.60;75.60;;;;;;5056679;28;20208;-71
2022/12/11 03:16:53;;;;;;;22.83;12.93;;;2.60;75.70;;;;;;5065728;28;20232;-70
2022/12/11 03:19:35;;;;;;;26.63;13.73;;;2.60;75.60;;;;;;5060453;28;20200;-72
2022/12/11 03:22:08;;;;;;;24.85;14.90;;;2.60;75.80;;;;;;5058251;28;20685;-71
2022/12/11 03:24:41;;;;;;;25.13;14.55;;;2.60;75.80;;;;;;5058584;28;20207;-71
2022/12/11 03:27:23;;;;;;;22.10;14.70;;;2.70;75.80;;;;;;5058126;28;20583;-70
2022/12/11 03:29:57;;;;;;;26.98;14.38;;;2.70;75.80;;;;;;5056938;28;20253;-70
2022/12/11 03:32:28;;;;;;;26.48;15.10;;;2.70;75.80;;;;;;5056779;28;20204;-70
2022/12/11 03:35:02;;;;;;;23.88;13.88;;;2.70;75.70;;;;;;5072304;28;20216;-70
2022/12/11 03:37:34;;;;;;;23.48;13.77;;;2.70;75.70;;;;;;5054162;28;20220;-71
2022/12/11 03:40:07;;;;;;;21.20;12.43;;;2.70;75.70;;;;;;5055613;28;20221;-69
2022/12/11 03:42:36;;;;;;;24.33;13.60;;;2.70;75.70;;;;;;5053541;28;20223;-70
2022/12/11 03:45:08;;;;;;;22.58;13.45;;;2.70;75.70;;;;;;5057301;28;20214;-69
2022/12/11 03:47:39;;;;;;;22.20;13.48;;;2.70;75.70;;;;;;5056575;28;20230;-71
2022/12/11 03:50:10;;;;;;;24.17;13.32;;;2.70;75.70;;;;;;5055064;28;20208;-71
2022/12/11 03:52:41;;;;;;;21.00;12.18;;;2.70;75.70;;;;;;5055886;28;20682;-71
2022/12/11 03:55:15;;;;;;;23.00;13.73;;;2.70;75.70;;;;;;5057644;28;20274;-71
2022/12/11 03:57:44;;;;;;;21.17;13.32;;;2.80;75.70;;;;;;5055213;28;20220;-70
2022/12/11 04:00:16;;;;;;;21.60;12.57;;;2.80;75.70;;;;;;5059600;28;20198;-70
2022/12/11 04:03:11;;;;;;;19.63;11.57;;;2.80;75.60;;;;;;5057431;28;20208;-71
2022/12/11 04:05:41;;;;;;;18.52;11.45;;;2.80;75.60;;;;;;5057874;28;20223;-71
2022/12/11 04:08:09;;;;;;;22.23;12.63;;;2.80;75.60;;;;;;5058575;28;20238;-71
2022/12/11 04:10:37;;;;;;;20.45;12.00;;;2.80;75.60;;;;;;5059118;28;20216;-71
2022/12/11 04:13:05;;;;;;;19.83;12.10;;;2.80;75.60;;;;;;5054490;28;20249;-70
2022/12/11 04:15:34;;;;;;;25.15;13.57;;;2.80;75.70;;;;;;5055318;28;20301;-70
2022/12/11 04:26:20;;;;;;;23.05;12.57;;;2.80;75.60;;;;;;5053626;28;20365;-71
2022/12/11 04:28:49;;;;;;;21.27;12.13;;;2.80;75.60;;;;;;5051039;28;20598;-71
2022/12/11 04:31:21;;;;;;;18.98;11.40;;;2.80;75.60;;;;;;5071784;28;20202;-71
2022/12/11 04:33:50;;;;;;;22.38;12.40;;;2.80;75.60;;;;;;5056034;28;20207;-71
2022/12/11 04:36:18;;;;;;;20.80;13.15;;;2.90;75.60;;;;;;5056319;28;20211;-72
2022/12/11 04:38:46;;;;;;;19.63;11.23;;;2.80;75.60;;;;;;5059183;28;20236;-69
2022/12/11 04:41:15;;;;;;;22.00;12.45;;;2.90;75.60;;;;;;5059442;28;20228;-71
2022/12/11 04:43:44;;;;;;;22.23;12.73;;;2.90;75.60;;;;;;5058088;28;20212;-71
2022/12/11 04:46:14;;;;;;;22.08;12.43;;;2.90;75.40;;;;;;5060887;28;20230;-72
2022/12/11 04:48:44;;;;;;;22.13;12.57;;;2.80;75.50;;;;;;5061558;28;20226;-72
2022/12/11 04:51:13;;;;;;;19.58;11.73;;;2.80;75.40;;;;;;5055070;28;20254;-71
2022/12/11 04:53:41;;;;;;;21.08;12.02;;;2.80;75.30;;;;;;5058814;28;20648;-71
2022/12/11 04:56:11;;;;;;;19.60;11.32;;;2.70;75.30;;;;;;5058627;28;20271;-70
2022/12/11 04:58:40;;;;;;;20.92;11.98;;;2.70;75.30;;;;;;5057003;28;20215;-71
2022/12/11 05:01:08;;;;;;;23.23;12.20;;;2.70;75.40;;;;;;5059975;28;20228;-71
2022/12/11 05:03:36;;;;;;;23.27;13.45;;;2.70;75.40;;;;;;5056399;28;20208;-69
2022/12/11 05:06:07;;;;;;;20.13;11.25;;;2.60;75.30;;;;;;5052567;28;20220;-69
2022/12/11 05:08:37;;;;;;;18.65;11.70;;;2.60;75.30;;;;;;5060235;28;20907;-70
2022/12/11 05:11:08;;;;;;;19.00;12.52;;;2.60;75.30;;;;;;5055895;28;20204;-70
2022/12/11 05:13:37;;;;;;;17.80;11.35;;;2.60;75.30;;;;;;5054610;28;20212;-71
2022/12/11 05:16:06;;;;;;;18.45;12.25;;;2.50;75.20;;;;;;5056164;28;20258;-70
2022/12/11 05:18:34;;;;;;;19.58;12.20;;;2.50;75.20;;;;;;5055855;28;20323;-71
2022/12/11 05:21:07;;;;;;;20.25;12.48;;;2.50;75.10;;;;;;5056706;28;20286;-71
2022/12/11 05:23:36;;;;;;;17.65;10.00;;;2.40;75.10;;;;;;5057745;28;20204;-70
2022/12/11 05:26:07;;;;;;;20.23;10.52;;;2.40;75.20;;;;;;5059108;28;20259;-71
2022/12/11 05:28:37;;;;;;;19.17;12.13;;;2.40;75.20;;;;;;5058928;28;20196;-71
2022/12/11 05:31:07;;;;;;;16.52;10.43;;;2.40;75.40;;;;;;5060596;28;20209;-71
2022/12/11 05:33:35;;;;;;;19.88;11.57;;;2.40;75.10;;;;;;5056974;28;20207;-70
2022/12/11 05:36:04;;;;;;;21.33;12.60;;;2.30;75.10;;;;;;5054871;28;20756;-70
2022/12/11 05:38:33;;;;;;;19.92;12.65;;;2.30;75.10;;;;;;5056709;28;20261;-70
2022/12/11 05:41:03;;;;;;;21.10;12.07;;;2.20;75.00;;;;;;5057034;28;20675;-71
2022/12/11 05:43:33;;;;;;;21.23;12.85;;;2.20;75.20;;;;;;5060333;28;20200;-71
2022/12/11 05:46:07;;;;;;;24.73;13.48;;;2.20;75.30;;;;;;5056815;28;20232;-71
2022/12/11 05:48:35;;;;;;;24.25;12.85;;;2.20;75.40;;;;;;5054990;28;20219;-71
2022/12/11 05:51:04;;;;;;;20.15;11.98;;;2.20;75.40;;;;;;5057857;28;20200;-71
2022/12/11 05:53:35;;;;;;;19.92;11.05;;;2.20;75.40;;;;;;5055577;28;20197;-71
2022/12/11 05:56:04;;;;;;;19.92;10.85;;;2.20;75.40;;;;;;5055766;28;20228;-71
2022/12/11 05:58:32;;;;;;;21.00;13.20;;;2.20;75.40;;;;;;5059421;28;20219;-71
2022/12/11 06:01:00;;;;;;;20.48;12.50;;;2.20;75.40;;;;;;5056484;28;20288;-70
2022/12/11 06:03:28;;;;;;;20.58;12.80;;;2.30;75.40;;;;;;5055726;28;20204;-70
2022/12/11 06:05:56;;;;;;;21.67;13.35;;;2.30;75.40;;;;;;5054989;28;20970;-71
2022/12/11 06:08:24;;;;;;;21.58;13.38;;;2.30;75.40;;;;;;5059272;28;20662;-70
2022/12/11 06:10:53;;;;;;;25.15;13.57;;;2.30;75.20;;;;;;5057037;28;20790;-70
2022/12/11 06:13:22;;;;;;;24.88;12.75;;;2.30;75.20;;;;;;5056473;28;20261;-70
2022/12/11 06:15:50;;;;;;;23.02;13.57;;;2.30;75.20;;;;;;5060866;28;20200;-70
2022/12/11 06:18:18;;;;;;;25.13;13.77;;;2.30;75.20;;;;;;5062680;28;20224;-72
2022/12/11 06:20:46;;;;;;;23.00;11.90;;;2.20;75.20;;;;;;5054017;28;20261;-71
2022/12/11 06:23:14;;;;;;;20.40;11.95;;;2.30;75.40;;;;;;5055200;28;20193;-71
2022/12/11 06:25:42;;;;;;;25.27;13.38;;;2.20;75.20;;;;;;5055996;28;21131;-71
2022/12/11 06:28:12;;;;;;;22.92;13.32;;;2.20;75.20;;;;;;5056731;28;20322;-72
2022/12/11 06:30:40;;;;;;;24.45;13.10;;;2.20;75.40;;;;;;5061101;28;20204;-73
2022/12/11 06:33:08;;;;;;;21.33;12.63;;;2.20;75.40;;;;;;5055240;28;20208;-71
2022/12/11 06:35:36;;;;;;;27.00;14.25;;;2.20;75.40;;;;;;5058564;28;20215;-71
2022/12/11 06:38:10;;;;;;;25.40;14.40;;;2.20;75.40;;;;;;5052785;28;20227;-73
2022/12/11 06:40:38;;;;;;;23.77;13.00;;;2.20;75.60;;;;;;5056538;28;20207;-72
2022/12/11 06:43:06;;;;;;;23.75;15.05;;;2.20;75.60;;;;;;5060597;28;20254;-69
2022/12/11 06:45:37;;;;;;;23.13;13.80;;;2.30;75.60;;;;;;5059861;28;20212;-69
2022/12/11 06:48:05;;;;;;;22.50;13.90;;;2.30;75.70;;;;;;5060787;28;20232;-70
2022/12/11 06:50:33;;;;;;;24.60;13.02;;;2.30;75.60;;;;;;5059963;28;20207;-71
2022/12/11 06:53:01;;;;;;;24.27;14.40;;;2.30;75.60;;;;;;5058490;28;20211;-70
2022/12/11 06:55:29;;;;;;;22.85;13.40;;;2.30;75.70;;;;;;5057580;28;20207;-72
2022/12/11 06:57:57;;;;;;;25.15;14.10;;;2.30;75.70;;;;;;5063312;28;20266;-70
2022/12/11 07:00:26;;;;;;;24.60;13.05;;;2.40;75.70;;;;;;5072866;28;20238;-71
2022/12/11 07:02:55;;;;;;;23.38;13.98;;;2.40;75.70;;;;;;5071080;28;20249;-71
2022/12/11 07:05:23;;;;;;;23.95;13.77;;;2.40;75.70;;;;;;5070492;28;20213;-71
2022/12/11 07:07:53;;;;;;;25.88;16.02;;;2.40;75.70;;;;;;5067985;28;20220;-71
2022/12/11 07:10:22;;;;;;;26.75;15.70;;;2.40;75.70;;;;;;5070886;28;20222;-72
2022/12/11 07:12:52;;;;;;;32.90;18.02;;;2.40;75.80;;;;;;5071457;28;20259;-72
2022/12/11 07:15:19;;;;;;;29.77;16.83;;;2.40;75.70;;;;;;5071983;28;20208;-71
2022/12/11 07:17:47;;;;;;;30.52;17.70;;;2.40;75.60;;;;;;5070696;28;20605;-72
2022/12/11 07:20:17;;;;;;;30.88;17.40;;;2.40;75.70;;;;;;5064623;28;20212;-71
2022/12/11 07:22:45;;;;;;;29.05;16.70;;;2.40;75.70;;;;;;5062102;28;20212;-71
2022/12/11 07:25:14;;;;;;;28.17;16.58;;;2.40;75.80;;;;;;5064806;28;20200;-71
2022/12/11 07:27:42;;;;;;;28.95;16.77;;;2.40;75.80;;;;;;5062615;28;20224;-72
2022/12/11 07:30:11;;;;;;;32.30;18.05;;;2.40;75.80;;;;;;5067190;28;20200;-71
2022/12/11 07:32:39;;;;;;;31.42;17.33;;;2.40;75.80;;;;;;5052655;28;20238;-69
2022/12/11 07:35:07;;;;;;;28.45;16.63;;;2.40;75.80;;;;;;5052300;28;20212;-71
2022/12/11 07:37:40;;;;;;;23.40;12.80;;;2.40;75.80;;;;;;5052072;28;20232;-71
2022/12/11 07:40:09;;;;;;;23.70;12.60;;;2.40;75.80;;;;;;5057076;28;20215;-71
2022/12/11 07:42:37;;;;;;;22.80;13.95;;;2.40;75.90;;;;;;5056183;28;20287;-71
2022/12/11 07:45:12;;;;;;;19.50;11.00;;;2.40;75.70;;;;;;5054270;28;20214;-71
2022/12/11 07:47:41;;;;;;;26.73;13.02;;;2.40;75.60;;;;;;5055708;28;20235;-69
2022/12/11 07:50:09;;;;;;;23.92;12.57;;;2.40;75.60;;;;;;5055821;28;20203;-70
2022/12/11 07:52:39;;;;;;;21.60;12.55;;;2.40;75.70;;;;;;5054124;28;20206;-70
2022/12/11 07:55:07;;;;;;;20.95;12.23;;;2.30;75.40;;;;;;5055441;28;20203;-70
2022/12/11 07:57:36;;;;;;;24.52;13.43;;;2.30;75.60;;;;;;5054319;28;20228;-71
2022/12/11 08:00:05;;;;;;;23.10;13.15;;;2.30;75.70;;;;;;5058962;28;20250;-67
2022/12/11 08:02:39;;;;;;;22.33;13.00;;;2.40;75.80;;;;;;5052522;28;20415;-71
2022/12/11 08:05:08;;;;;;;24.33;13.95;;;2.40;75.90;;;;;;5053910;28;20228;-70
2022/12/11 08:07:38;;;;;;;24.67;14.65;;;2.40;75.70;;;;;;5054581;28;20220;-69
2022/12/11 08:10:07;;;;;;;28.20;15.27;;;2.40;75.60;;;;;;5059020;28;20200;-70
2022/12/11 08:12:35;;;;;;;25.08;13.88;;;2.40;75.60;;;;;;5061664;28;20277;-69
2022/12/11 08:15:03;;;;;;;22.38;13.55;;;2.40;75.60;;;;;;5059725;28;20829;-70
2022/12/11 08:17:31;;;;;;;27.08;14.20;;;2.40;75.70;;;;;;5058193;28;20216;-70
2022/12/11 08:20:08;;;;;;;27.77;14.23;;;2.40;75.70;;;;;;5057890;28;20204;-70
2022/12/11 08:22:36;;;;;;;24.38;14.13;;;2.40;75.60;;;;;;5059691;28;20541;-71
2022/12/11 08:25:06;;;;;;;24.95;13.35;;;2.40;75.70;;;;;;5056820;28;20568;-72
2022/12/11 08:27:34;;;;;;;24.27;13.85;;;2.40;75.60;;;;;;5057136;28;20220;-70
2022/12/11 08:30:03;;;;;;;28.02;15.00;;;2.40;75.70;;;;;;5054658;28;20262;-70
2022/12/11 08:32:30;;;;;;;25.20;14.63;;;2.40;75.70;;;;;;5056768;28;20212;-69
2022/12/11 08:34:58;;;;;;;21.60;12.05;;;2.50;75.70;;;;;;5061572;28;20203;-69
2022/12/11 08:37:26;;;;;;;19.38;11.40;;;2.50;75.70;;;;;;5058841;28;22006;-71
2022/12/11 08:39:54;;;;;;;19.42;10.80;;;2.50;75.60;;;;;;5056170;28;20378;-71
2022/12/11 08:42:24;;;;;;;19.25;11.48;;;2.50;75.50;;;;;;5058690;28;20947;-70
2022/12/11 08:44:52;;;;;;;21.08;11.60;;;2.50;75.40;;;;;;5059141;28;20696;-72
2022/12/11 08:47:20;;;;;;;21.48;11.30;;;2.50;75.60;;;;;;5059385;28;20293;-70
2022/12/11 08:49:48;;;;;;;21.23;10.43;;;2.50;75.60;;;;;;5061813;28;20570;-71
2022/12/11 08:52:16;;;;;;;19.80;11.10;;;2.60;75.60;;;;;;5054642;28;20201;-70
2022/12/11 08:54:44;;;;;;;21.63;11.63;;;2.60;75.60;;;;;;5061066;28;20200;-69
2022/12/11 08:57:11;;;;;;;23.40;11.15;;;2.60;75.60;;;;;;5055739;28;20269;-69
2022/12/11 08:59:42;;;;;;;23.20;10.30;;;2.60;75.50;;;;;;5063232;28;20247;-70
2022/12/11 09:02:11;;;;;;;19.33;10.52;;;2.60;75.30;;;;;;5059154;28;20678;-71
2022/12/11 09:04:39;;;;;;;23.25;10.65;;;2.60;75.20;;;;;;5055325;28;20249;-71
2022/12/11 09:07:07;;;;;;;17.13;11.27;;;2.50;75.10;;;;;;5060088;28;20228;-71
2022/12/11 09:09:35;;;;;;;21.45;11.07;;;2.50;75.20;;;;;;5058652;28;20203;-70
2022/12/11 09:12:03;;;;;;;17.20;9.77;;;2.50;75.40;;;;;;5059952;28;20203;-70
2022/12/11 09:14:31;;;;;;;18.98;10.65;;;2.50;75.40;;;;;;5058655;28;20201;-70
2022/12/11 09:17:00;;;;;;;22.38;10.98;;;2.50;75.40;;;;;;5068250;28;22295;-70
2022/12/11 09:19:29;;;;;;;18.35;10.98;;;2.60;75.30;;;;;;5058790;28;20211;-71
2022/12/11 09:21:59;;;;;;;18.70;11.77;;;2.60;75.30;;;;;;5060255;28;20197;-71
2022/12/11 09:24:27;;;;;;;20.50;12.70;;;2.60;75.30;;;;;;5064509;28;20207;-71
2022/12/11 09:26:55;;;;;;;17.77;10.25;;;2.50;75.20;;;;;;5060416;28;20301;-72
2022/12/11 09:29:23;;;;;;;19.80;11.68;;;2.50;75.10;;;;;;5056469;28;20204;-71
2022/12/11 09:31:51;;;;;;;20.48;13.30;;;2.50;75.20;;;;;;5059493;28;20700;-71
2022/12/11 09:34:21;;;;;;;23.48;13.68;;;2.50;75.40;;;;;;5058139;28;20192;-71
2022/12/11 09:36:56;;;;;;;27.83;13.50;;;2.60;75.30;;;;;;5058100;28;20213;-71
2022/12/11 09:39:24;;;;;;;25.95;14.43;;;2.60;75.30;;;;;;5059060;28;20200;-71
2022/12/11 09:42:04;;;;;;;28.27;15.50;;;2.60;75.20;;;;;;5052943;28;20213;-70
2022/12/11 09:44:41;;;;;;;29.20;15.70;;;2.60;75.20;;;;;;5055499;28;20200;-70
2022/12/11 09:47:19;;;;;;;22.45;13.20;;;2.50;75.20;;;;;;5057550;28;20224;-71
2022/12/11 09:49:53;;;;;;;22.40;13.30;;;2.60;75.20;;;;;;5054053;28;20192;-70
2022/12/11 09:52:26;;;;;;;26.40;13.95;;;2.50;75.20;;;;;;5054526;28;20204;-70
2022/12/11 09:54:57;;;;;;;24.75;14.10;;;2.50;75.30;;;;;;5056191;28;20831;-73
2022/12/11 09:57:43;;;;;;;24.35;13.65;;;2.60;75.20;;;;;;5059122;28;20732;-71
2022/12/11 10:00:20;;;;;;;27.10;15.30;;;2.60;75.30;;;;;;5056552;28;20228;-71
2022/12/11 10:03:07;;;;;;;23.20;14.07;;;2.60;75.20;;;;;;5056837;28;20215;-69
2022/12/11 10:05:46;;;;;;;24.77;14.07;;;2.60;75.30;;;;;;5055791;28;20211;-70
2022/12/11 10:08:20;;;;;;;24.88;13.73;;;2.60;75.20;;;;;;5059162;28;20204;-71
2022/12/11 10:10:55;;;;;;;22.20;12.55;;;2.50;75.20;;;;;;5060692;28;20203;-70
2022/12/11 10:13:32;;;;;;;19.77;11.55;;;2.50;75.20;;;;;;5056366;28;20258;-71
2022/12/11 10:16:09;;;;;;;20.52;12.60;;;2.50;75.10;;;;;;5054500;28;20686;-70
2022/12/11 10:18:38;;;;;;;23.10;12.30;;;2.50;75.30;;;;;;5056061;28;20211;-72
2022/12/11 10:21:09;;;;;;;19.30;12.52;;;2.50;75.30;;;;;;5056321;28;20309;-71
2022/12/11 10:23:43;;;;;;;22.13;13.50;;;2.60;75.40;;;;;;5054751;28;20258;-71
2022/12/11 10:26:17;;;;;;;25.42;13.38;;;2.60;75.40;;;;;;5055034;28;20230;-71
2022/12/11 10:28:46;;;;;;;24.88;13.68;;;2.60;75.40;;;;;;5049784;28;20246;-71
2022/12/11 10:31:34;;;;;;;22.45;12.80;;;2.60;75.30;;;;;;5054536;28;20542;-70
2022/12/11 10:34:04;;;;;;;23.88;13.65;;;2.60;75.20;;;;;;5055330;28;20211;-71
2022/12/11 10:36:37;;;;;;;26.90;15.30;;;2.60;75.30;;;;;;5053967;28;20935;-72
2022/12/11 10:39:13;;;;;;;25.52;13.80;;;2.70;75.40;;;;;;5052517;28;20207;-72
2022/12/11 10:41:43;;;;;;;20.13;11.82;;;2.70;75.30;;;;;;5050709;28;20292;-71
2022/12/11 10:44:16;;;;;;;24.13;14.07;;;2.70;75.00;;;;;;5053942;28;20261;-71
2022/12/11 10:46:45;;;;;;;21.40;13.05;;;2.60;74.90;;;;;;5053668;28;20219;-72
2022/12/11 10:49:24;;;;;;;31.23;13.50;;;2.60;75.00;;;;;;5054633;28;20200;-71
2022/12/11 10:51:54;;;;;;;22.65;12.60;;;2.60;75.10;;;;;;5052057;28;20220;-71
2022/12/11 10:54:33;;;;;;;22.52;13.10;;;2.60;75.20;;;;;;5057283;28;20261;-70
2022/12/11 10:57:03;;;;;;;25.25;13.57;;;2.60;75.20;;;;;;5056312;28;20714;-71
2022/12/11 10:59:36;;;;;;;23.30;13.15;;;2.60;75.20;;;;;;5064106;28;20797;-70
2022/12/11 11:02:06;;;;;;;24.15;12.57;;;2.60;74.70;;;;;;5057869;28;20208;-70
2022/12/11 11:04:37;;;;;;;22.98;12.35;;;2.50;74.60;;;;;;5055404;28;20211;-69
2022/12/11 11:07:14;;;;;;;21.00;12.02;;;2.40;74.80;;;;;;5054729;28;20228;-70
2022/12/11 11:09:42;;;;;;;23.17;12.30;;;2.40;75.00;;;;;;5054372;28;20207;-70
2022/12/11 11:12:19;;;;;;;23.05;12.30;;;2.40;75.00;;;;;;5053622;28;20201;-70
2022/12/11 11:14:47;;;;;;;21.50;11.95;;;2.40;74.90;;;;;;5056806;28;20673;-69
2022/12/11 11:17:17;;;;;;;22.77;12.25;;;2.40;75.00;;;;;;5055105;28;20216;-69
2022/12/11 11:19:48;;;;;;;21.88;12.45;;;2.40;75.10;;;;;;5054463;28;20204;-70
2022/12/11 11:22:19;;;;;;;20.45;10.80;;;2.40;75.10;;;;;;5056700;28;20278;-70
2022/12/11 11:24:53;;;;;;;20.35;12.95;;;2.50;75.10;;;;;;5055260;28;20683;-70
2022/12/11 11:27:29;;;;;;;21.23;11.45;;;2.50;75.20;;;;;;5057224;28;20288;-71
2022/12/11 11:29:59;;;;;;;23.92;12.07;;;2.50;75.20;;;;;;5052565;28;20756;-71
2022/12/11 11:32:32;;;;;;;21.40;11.57;;;2.50;75.10;;;;;;5049949;28;20250;-71
2022/12/11 11:35:17;;;;;;;20.05;11.20;;;2.60;75.10;;;;;;5049202;28;20216;-71
2022/12/11 11:37:54;;;;;;;22.17;12.55;;;2.60;75.20;;;;;;5056069;28;20232;-71
2022/12/11 11:40:26;;;;;;;17.55;11.02;;;2.60;75.20;;;;;;5055094;28;20241;-71
2022/12/11 11:43:04;;;;;;;19.58;11.70;;;2.70;75.30;;;;;;5054296;28;20284;-70
2022/12/11 11:45:40;;;;;;;20.13;11.52;;;2.70;75.30;;;;;;5056056;28;20204;-72
2022/12/11 11:48:21;;;;;;;22.58;12.10;;;2.80;75.20;;;;;;5057439;28;20207;-71
2022/12/11 11:50:50;;;;;;;22.45;11.05;;;2.80;75.20;;;;;;5055625;28;20837;-70
2022/12/11 11:53:26;;;;;;;22.15;12.05;;;2.80;75.20;;;;;;5050505;28;20196;-72
2022/12/11 11:56:02;;;;;;;23.23;13.38;;;2.90;75.00;;;;;;5057821;28;20208;-71
2022/12/11 11:58:39;;;;;;;24.30;11.73;;;2.90;75.00;;;;;;5055759;28;20257;-70
2022/12/11 12:01:13;;;;;;;22.58;12.82;;;2.90;75.00;;;;;;5053015;28;20273;-71
2022/12/11 12:03:42;;;;;;;22.60;12.05;;;3.00;75.00;;;;;;5051504;28;20321;-70
2022/12/11 12:06:18;;;;;;;22.60;12.73;;;3.00;74.90;;;;;;5060946;28;20778;-71
2022/12/11 12:08:58;;;;;;;21.55;12.43;;;3.00;74.90;;;;;;5045439;28;20230;-71
2022/12/11 12:11:32;;;;;;;23.23;12.65;;;3.00;74.90;;;;;;5046509;28;20672;-72
2022/12/11 12:14:11;;;;;;;22.25;12.35;;;3.00;74.80;;;;;;5054205;28;20249;-70
2022/12/11 12:17:09;;;;;;;19.80;11.55;;;3.00;74.80;;;;;;5051495;28;20331;-71
2022/12/11 12:19:46;;;;;;;23.80;12.35;;;3.00;74.80;;;;;;5056188;28;20873;-71
2022/12/11 12:22:29;;;;;;;25.40;12.15;;;3.00;74.80;;;;;;5054418;28;20248;-70
2022/12/11 12:25:10;;;;;;;20.95;11.88;;;3.00;74.80;;;;;;5049175;28;20200;-70
2022/12/11 12:27:46;;;;;;;21.15;12.00;;;3.00;74.80;;;;;;5071643;28;20238;-71
2022/12/11 12:30:20;;;;;;;22.10;12.50;;;3.00;74.70;;;;;;5048721;28;20197;-71
2022/12/11 12:33:01;;;;;;;23.65;12.88;;;3.00;74.70;;;;;;5051047;28;20200;-71
2022/12/11 12:35:35;;;;;;;24.08;12.40;;;3.00;74.80;;;;;;5053434;28;20208;-71
2022/12/11 12:38:14;;;;;;;23.83;13.40;;;3.00;74.80;;;;;;5052618;28;20281;-71
2022/12/11 12:40:56;;;;;;;23.50;13.02;;;3.10;74.70;;;;;;5052623;28;20257;-72
2022/12/11 12:43:48;;;;;;;24.05;13.30;;;3.10;74.70;;;;;;5050375;28;20868;-72
2022/12/11 12:46:27;;;;;;;26.02;13.38;;;3.10;74.60;;;;;;5053336;28;20228;-72
2022/12/11 12:48:58;;;;;;;23.75;12.73;;;3.00;74.70;;;;;;5055842;28;20208;-71
2022/12/11 12:51:27;;;;;;;25.75;14.40;;;3.00;74.70;;;;;;5053465;28;20483;-72
2022/12/11 12:53:57;;;;;;;28.40;14.40;;;3.00;74.70;;;;;;5054056;28;20200;-71
2022/12/11 12:56:29;;;;;;;27.42;15.50;;;3.00;74.60;;;;;;5052965;28;20258;-70
2022/12/11 12:58:57;;;;;;;28.90;13.55;;;3.00;74.60;;;;;;5054493;28;20849;-72
2022/12/11 13:01:28;;;;;;;26.92;15.10;;;3.00;74.70;;;;;;5060163;28;20720;-71
2022/12/11 13:04:00;;;;;;;27.42;15.85;;;3.00;74.70;;;;;;5054382;28;20858;-71
2022/12/11 13:06:32;;;;;;;28.60;15.10;;;3.00;74.60;;;;;;5053694;28;20632;-71